Latest Weather Observations for Bunbury

IDW60801

Issued at 3:32 pm WST Tuesday 4 August 2015 (issued every 30 minutes, with the page automatically refreshed every 10 minutes)

About weather observations | Map of weather stations | Latest weather observations for WA | Other Formats
Station Details ID: 009965 Name: BUNBURY Lat: -33.36 Lon: 115.64 Height: 5.2 m
Data from the previous 72 hours. | See also: Recent months at Bunbury
Date/Time
WST
Temp
°C
App
Temp
°C
Dew
Point
Rel
Hum
%
Delta-T
°C
Wind Press
QNH
hPa
Press
MSL
hPa
Rain
since 9 am
mm
Dir
 
Spd
km/h
Gust
km/h
Spd
kts
Gust
kts
04/03:30pm 17.6 17.5 15.9 90 1.0 ESE 11 20 6 11 1031.4 1031.4 0.0
04/03:00pm 17.5 17.0 15.8 90 1.0 SE 13 20 7 11 1031.6 1031.6 0.0
04/02:30pm 17.6 17.5 15.9 90 1.0 ESE 11 20 6 11 1031.7 1031.7 0.0
04/02:00pm 17.7 17.6 16.0 90 1.0 E 11 19 6 10 1031.8 1031.8 0.0
04/01:30pm 17.9 17.9 16.2 90 1.0 SE 11 19 6 10 1032.3 1032.3 0.0
04/01:00pm 16.6 16.1 15.0 90 0.9 E 11 17 6 9 1032.7 1032.7 0.0
04/12:30pm 17.3 17.4 15.6 90 1.0 E 9 17 5 9 1033.2 1033.2 0.0
04/12:00pm 16.9 16.9 15.2 90 1.0 E 9 15 5 8 1033.7 1033.7 0.0
04/11:30am 16.5 15.6 14.9 90 0.9 ENE 13 17 7 9 1034.2 1034.2 0.0
04/11:00am 15.4 14.9 13.8 90 0.9 E 9 15 5 8 1034.5 1034.5 0.0
04/10:30am 14.5 13.7 12.9 90 0.9 ESE 9 13 5 7 1034.8 1034.8 0.0
04/10:00am 13.5 12.4 11.9 90 0.8 ESE 9 15 5 8 1035.1 1035.1 0.0
04/09:30am 12.5 11.5 10.9 90 0.8 SE 7 13 4 7 1035.2 1035.2 0.0
04/09:00am 11.0 9.2 9.4 90 0.8 ESE 9 13 5 7 1035.1 1035.1 0.0
04/08:30am 9.3 7.4 7.7 90 0.8 SE 7 11 4 6 1034.9 1034.9 0.0
04/08:00am 8.1 6.2 6.6 90 0.7 SE 6 7 3 4 1034.9 1034.9 0.0
04/07:30am 7.4 5.7 5.9 90 0.7 SSE 4 6 2 3 1034.7 1034.7 0.0
04/07:00am 7.0 5.2 5.5 90 0.7 SSE 4 7 2 4 1034.6 1034.6 0.0
04/06:30am 6.9 5.1 5.4 90 0.7 S 4 4 2 2 1034.5 1034.5 0.0
04/06:00am 7.7 6.1 6.2 90 0.7 SE 4 6 2 3 1034.3 1034.3 0.0
04/05:30am 7.8 6.2 6.3 90 0.7 SSE 4 6 2 3 1034.1 1034.1 0.0
04/05:00am 7.8 5.8 6.3 90 0.7 SE 6 7 3 4 1034.1 1034.1 0.0
04/04:30am 8.4 6.0 6.9 90 0.7 SE 9 11 5 6 1034.1 1034.1 0.0
04/04:00am 8.8 6.5 7.3 90 0.7 SE 9 13 5 7 1033.9 1033.9 0.0
04/03:30am 8.8 6.5 7.3 90 0.7 SE 9 13 5 7 1033.7 1033.7 0.0
04/03:00am 8.8 6.5 7.3 90 0.7 ESE 9 11 5 6 1033.9 1033.9 0.0
04/02:30am 8.8 6.5 7.3 90 0.7 SE 9 11 5 6 1034.0 1034.0 0.0
04/02:00am 9.2 6.9 7.6 90 0.8 SE 9 13 5 7 1034.0 1034.0 0.0
04/01:30am 8.5 6.5 7.0 90 0.7 SE 7 9 4 5 1034.0 1034.0 0.0
04/01:00am 8.3 6.2 6.8 90 0.7 SE 7 7 4 4 1034.1 1034.1 0.0
04/12:30am 8.4 6.5 6.9 90 0.7 ESE 6 7 3 4 1034.1 1034.1 0.0
04/12:00am 9.3 7.6 7.7 90 0.8 SE 6 7 3 4 1034.0 1034.0 0.0
 
Date/Time
WST
Temp
°C
App
Temp
°C
Dew
Point
Rel
Hum
%
Delta-T
°C
Wind Press
QNH
hPa
Press
MSL
hPa
Rain
since 9 am
mm
Dir
 
Spd
km/h
Gust
km/h
Spd
kts
Gust
kts
03/11:30pm 9.8 8.2 8.2 90 0.8 SE 6 11 3 6 1033.9 1033.9 0.0
03/11:00pm 9.9 8.2 8.3 90 0.8 SE 7 11 4 6 1034.1 1034.1 0.0
03/10:30pm 8.6 7.9 7.1 90 0.7 CALM 0 2 0 1 1034.3 1034.3 0.0
03/10:00pm 8.9 7.5 7.4 90 0.7 SSW 4 4 2 2 1034.6 1034.6 0.0
03/09:30pm 9.6 7.8 8.0 90 0.8 SSW 7 9 4 5 1034.6 1034.6 0.0
03/09:00pm 9.2 8.6 7.6 90 0.8 CALM 0 0 0 0 1034.5 1034.5 0.0
03/08:30pm 9.2 8.6 7.6 90 0.8 CALM 0 0 0 0 1034.3 1034.3 0.0
03/08:00pm 10.0 9.6 8.4 90 0.8 CALM 0 0 0 0 1034.2 1034.2 0.0
03/07:30pm 10.4 9.8 8.8 90 0.8 SSW 2 4 1 2 1034.1 1034.1 0.0
03/07:00pm 11.7 10.6 10.1 90 0.8 S 6 7 3 4 1034.0 1034.0 0.0
03/06:30pm 12.5 12.0 10.9 90 0.8 S 4 6 2 3 1033.7 1033.7 0.0
03/06:00pm 13.1 12.8 11.5 90 0.8 SSW 4 6 2 3 1033.4 1033.4 0.0
03/05:30pm 13.6 13.1 12.0 90 0.9 SSW 6 7 3 4 1033.4 1033.4 0.0
03/05:00pm 14.6 14.2 13.0 90 0.9 SW 7 9 4 5 1033.4 1033.4 0.0
03/04:30pm 15.1 14.1 13.5 90 0.9 SW 11 17 6 9 1033.5 1033.5 0.0
03/04:00pm 15.8 15.4 14.2 90 0.9 WSW 9 17 5 9 1033.5 1033.5 0.0
03/03:30pm 15.4 14.5 13.8 90 0.9 WSW 11 15 6 8 1033.5 1033.5 0.0
03/03:00pm 15.9 15.6 14.3 90 0.9 WSW 9 13 5 7 1033.3 1033.3 0.0
03/02:30pm 16.3 16.5 14.7 90 0.9 WSW 7 13 4 7 1033.4 1033.4 0.0
03/02:00pm 17.4 18.0 15.7 90 1.0 W 7 9 4 5 1033.6 1033.6 0.0
03/01:30pm 16.0 16.1 14.4 90 0.9 WSW 7 11 4 6 1034.1 1034.1 0.0
03/01:00pm 16.8 17.2 15.2 90 0.9 W 7 13 4 7 1034.4 1034.4 0.0
03/12:30pm 17.0 17.6 15.3 90 1.0 ENE 6 13 3 7 1034.7 1034.7 0.0
03/12:00pm 16.3 16.7 14.7 90 0.9 E 6 11 3 6 1035.3 1035.3 0.0
03/11:30am 16.0 16.3 14.4 90 0.9 ENE 6 13 3 7 1035.7 1035.7 0.0
03/11:00am 15.6 15.5 14.0 90 0.9 E 7 9 4 5 1036.0 1036.0 0.0
03/10:30am 15.2 15.2 13.6 90 0.9 E 6 9 3 5 1036.1 1036.1 0.0
03/10:00am 14.4 13.9 12.8 90 0.9 ENE 7 11 4 6 1036.3 1036.3 0.0
03/09:30am 13.3 13.1 11.7 90 0.9 ENE 4 7 2 4 1036.5 1036.5 0.0
03/09:00am 11.7 10.6 10.1 90 0.8 E 6 7 3 4 1036.4 1036.4 0.0
03/08:30am 9.7 8.9 8.1 90 0.8 E 2 4 1 2 1036.3 1036.3 0.0
03/08:00am 7.9 6.3 6.4 90 0.7 ENE 4 6 2 3 1036.0 1036.0 0.0
03/07:30am 6.1 4.1 4.6 90 0.6 ESE 4 4 2 2 1035.8 1035.8 0.0
03/07:00am 4.8 3.4 3.3 90 0.6 CALM 0 0 0 0 1035.4 1035.4 0.0
03/06:30am 5.7 4.4 4.2 90 0.6 CALM 0 0 0 0 1035.2 1035.2 0.0
03/06:00am 5.3 3.6 3.8 90 0.6 SSW 2 4 1 2 1034.8 1034.8 0.0
03/05:30am 6.8 5.4 5.3 90 0.7 S 2 6 1 3 1034.8 1034.8 0.0
03/05:00am 6.3 5.1 4.8 90 0.6 CALM 0 0 0 0 1035.0 1035.0 0.0
03/04:30am 7.4 6.1 5.9 90 0.7 ESE 2 4 1 2 1034.9 1034.9 0.0
03/04:00am 8.4 6.9 6.9 90 0.7 ESE 4 6 2 3 1034.9 1034.9 0.0
03/03:30am 8.9 7.5 7.4 90 0.7 E 4 6 2 3 1035.0 1035.0 0.0
03/03:00am 8.5 7.4 7.0 90 0.7 SE 2 6 1 3 1035.1 1035.1 0.0
03/02:30am 8.8 8.2 7.3 90 0.7 CALM 0 0 0 0 1035.3 1035.3 0.0
03/02:00am 8.6 7.2 7.1 90 0.7 ESE 4 6 2 3 1035.2 1035.2 0.0
03/01:30am 9.1 7.4 7.5 90 0.8 SE 6 7 3 4 1035.0 1035.0 0.0
03/01:00am 8.1 6.2 6.6 90 0.7 SE 6 7 3 4 1034.7 1034.7 0.0
03/12:30am 8.3 6.8 6.8 90 0.7 ESE 4 4 2 2 1034.8 1034.8 0.0
03/12:00am 8.8 7.8 7.3 90 0.7 SE 2 4 1 2 1034.8 1034.8 0.0
 
Date/Time
WST
Temp
°C
App
Temp
°C
Dew
Point
Rel
Hum
%
Delta-T
°C
Wind Press
QNH
hPa
Press
MSL
hPa
Rain
since 9 am
mm
Dir
 
Spd
km/h
Gust
km/h
Spd
kts
Gust
kts
02/11:30pm 10.2 8.7 8.6 90 0.8 SE 6 7 3 4 1034.6 1034.6 0.0
02/11:00pm 11.0 9.8 9.4 90 0.8 SE 6 9 3 5 1034.7 1034.7 0.0
02/10:30pm 12.1 11.0 10.5 90 0.8 SSE 7 11 4 6 1034.9 1034.9 0.0
02/10:00pm 12.3 11.4 10.7 90 0.8 S 6 7 3 4 1035.3 1035.3 0.0
02/09:30pm 12.4 11.3 10.8 90 0.8 S 7 9 4 5 1035.4 1035.4 0.0
02/09:00pm 12.2 12.4 10.6 90 0.8 CALM 0 0 0 0 1035.4 1035.4 0.0
02/08:30pm 12.3 12.5 10.7 90 0.8 CALM 0 0 0 0 1035.1 1035.1 0.0
02/08:00pm 12.4 11.9 10.8 90 0.8 S 4 7 2 4 1035.2 1035.2 0.0
02/07:30pm 12.4 11.9 10.8 90 0.8 S 4 6 2 3 1035.1 1035.1 0.0
02/07:00pm 12.6 12.2 11.0 90 0.8 SSW 4 4 2 2 1034.8 1034.8 0.0
02/06:30pm 12.9 12.9 11.3 90 0.8 NE 2 4 1 2 1034.6 1034.6 0.0
02/06:00pm 13.1 12.8 11.5 90 0.8 NE 4 6 2 3 1034.2 1034.2 0.0
02/05:30pm 13.6 13.1 12.0 90 0.9 E 6 9 3 5 1033.8 1033.8 0.0
02/05:00pm 14.5 13.7 12.9 90 0.9 E 9 15 5 8 1033.6 1033.6 0.0
02/04:30pm 14.9 14.2 13.3 90 0.9 ESE 9 15 5 8 1033.3 1033.3 0.0
02/04:00pm 15.4 14.5 13.8 90 0.9 E 11 15 6 8 1033.2 1033.2 0.0
02/03:30pm 14.6 13.5 13.0 90 0.9 ESE 11 15 6 8 1033.0 1033.0 0.0
02/03:00pm 14.8 14.1 13.2 90 0.9 SE 9 15 5 8 1032.9 1032.9 0.0
02/02:30pm 14.6 13.5 13.0 90 0.9 SE 11 15 6 8 1032.9 1032.9 0.0
02/02:00pm 14.6 13.8 13.0 90 0.9 SSE 9 15 5 8 1033.0 1033.0 0.0
02/01:30pm 14.8 13.7 13.2 90 0.9 SSE 11 19 6 10 1033.2 1033.2 0.0
02/01:00pm 14.4 13.2 12.8 90 0.9 SSE 11 17 6 9 1033.6 1033.6 0.0
02/12:30pm 14.4 12.8 12.8 90 0.9 SE 13 22 7 12 1034.0 1034.0 0.0
02/12:00pm 13.6 12.1 12.0 90 0.9 S 11 15 6 8 1034.5 1034.5 0.0
02/11:30am 14.3 13.8 12.7 90 0.9 ESE 7 11 4 6 1034.8 1034.8 0.0
02/11:00am 14.3 14.0 12.7 90 0.9 ESE 6 9 3 5 1035.1 1035.1 0.0
02/10:30am 14.1 14.5 12.5 90 0.9 NE 2 6 1 3 1035.4 1035.4 0.0
02/10:00am 12.7 12.3 11.1 90 0.8 E 4 6 2 3 1035.4 1035.4 0.0
02/09:30am 11.7 11.0 10.1 90 0.8 ESE 4 6 2 3 1035.2 1035.2 0.0
02/09:00am 10.4 9.4 8.8 90 0.8 ESE 4 6 2 3 1035.0 1035.0 0.0
02/08:30am 8.3 7.2 6.8 90 0.7 E 2 6 1 3 1034.8 1034.8 0.0
02/08:00am 5.4 4.1 3.9 90 0.6 CALM 0 0 0 0 1034.5 1034.5 0.0
02/07:30am 3.9 2.3 2.4 90 0.6 CALM 0 0 0 0 1034.1 1034.1 0.0
02/07:00am 4.1 2.5 2.6 90 0.6 CALM 0 0 0 0 1033.6 1033.6 0.0
02/06:30am 4.3 2.4 2.8 90 0.6 S 2 6 1 3 1033.2 1033.2 0.0
02/06:00am 4.6 3.1 3.1 90 0.6 CALM 0 2 0 1 1032.8 1032.8 0.0
02/05:30am 5.2 3.8 3.7 90 0.6 CALM 0 0 0 0 1032.6 1032.6 0.0
02/05:00am 5.5 4.2 4.0 90 0.6 CALM 0 0 0 0 1032.5 1032.5 0.0
02/04:30am 6.5 5.0 5.0 90 0.7 ESE 2 4 1 2 1032.4 1032.4 0.0
02/04:00am 8.1 6.6 6.6 90 0.7 ESE 4 6 2 3 1032.2 1032.2 0.0
02/03:30am 9.4 7.6 7.8 90 0.8 SE 7 11 4 6 1032.4 1032.4 0.0
02/03:00am 9.2 8.3 7.6 90 0.8 SE 2 6 1 3 1032.4 1032.4 0.0
02/02:30am 9.8 8.6 8.2 90 0.8 S 4 6 2 3 1032.3 1032.3 0.0
02/02:00am 9.9 9.5 8.3 90 0.8 CALM 0 4 0 2 1032.3 1032.3 0.0
02/01:30am 9.8 8.6 8.2 90 0.8 SSW 4 6 2 3 1032.2 1032.2 0.0
02/01:00am 10.1 9.0 8.5 90 0.8 S 4 7 2 4 1032.3 1032.3 0.0
02/12:30am 10.1 9.4 8.5 90 0.8 SE 2 4 1 2 1032.2 1032.2 0.0
02/12:00am 10.2 9.1 8.6 90 0.8 SE 4 7 2 4 1031.9 1031.9 0.0
 
Date/Time
WST
Temp
°C
App
Temp
°C
Dew
Point
Rel
Hum
%
Delta-T
°C
Wind Press
QNH
hPa
Press
MSL
hPa
Rain
since 9 am
mm
Dir
 
Spd
km/h
Gust
km/h
Spd
kts
Gust
kts
01/11:30pm 10.5 9.5 8.9 90 0.8 SE 4 6 2 3 1032.0 1032.0 0.0
01/11:00pm 10.6 9.1 9.0 90 0.8 SE 7 11 4 6 1031.9 1031.9 0.0
01/10:30pm 11.0 9.2 9.4 90 0.8 SSE 9 15 5 8 1032.0 1032.0 0.0
01/10:00pm 10.5 9.1 8.9 90 0.8 SSE 6 9 3 5 1031.8 1031.8 0.0
01/09:30pm 10.7 9.8 9.1 90 0.8 SSE 4 7 2 4 1031.5 1031.5 0.0
01/09:00pm 10.6 9.2 9.0 90 0.8 SE 6 7 3 4 1031.2 1031.2 0.0
01/08:30pm 11.3 9.9 9.7 90 0.8 SSE 7 13 4 7 1031.0 1031.0 0.0
01/08:00pm 12.2 10.7 10.6 90 0.8 SE 9 13 5 7 1030.6 1030.6 0.0
01/07:30pm 12.2 11.1 10.6 90 0.8 SSE 7 9 4 5 1030.3 1030.3 0.0
01/07:00pm 12.3 11.4 10.7 90 0.8 SSE 6 9 3 5 1029.9 1029.9 0.0
01/06:30pm 12.6 11.2 11.0 90 0.8 SE 9 15 5 8 1029.4 1029.4 0.0
01/06:00pm 12.8 11.5 11.2 90 0.8 SSE 9 15 5 8 1029.0 1029.0 0.0
01/05:30pm 13.2 11.2 11.6 90 0.9 SE 13 20 7 11 1028.6 1028.6 0.0
01/05:00pm 13.6 11.0 12.0 90 0.9 SSE 17 20 9 11 1028.2 1028.2 0.0
01/04:30pm 13.9 12.5 12.3 90 0.9 SE 11 17 6 9 1027.8 1027.8 0.0
01/04:00pm 14.1 12.0 12.5 90 0.9 SE 15 20 8 11 1027.5 1027.5 0.0

Other Formats:

Comma delimited format used in spreadsheet applications
http://www.bom.gov.au/fwo/IDW60801/IDW60801.94604.axf

JavaScript Object Notation format (JSON) in row-major order
http://www.bom.gov.au/fwo/IDW60801/IDW60801.94604.json